Time;durP1;ratioP1;P1;durP2;ratioP2;P2;SDS_P1;SDS_P2;PMS_P1;PMS_P2;Temp;Humidity;BMP_temperature;BMP_pressure;BME280_temperature;BME280_humidity;BME280_pressure;Samples;Min_cycle;Max_cycle;Signal;HPM_P1;HPM_P2
2023/12/04 00:00:35;;;;;;;2.87;2.17;;;;;;;;;;5588587;31;35003;-68
2023/12/04 00:03:37;;;;;;;18.05;14.60;;;;;;;;;;5589091;31;35103;-68
2023/12/04 00:06:42;;;;;;;5.68;3.42;;;;;;;;;;5589137;31;35047;-68
2023/12/04 00:09:45;;;;;;;19.95;15.52;;;;;;;;;;5589388;31;34936;-68
2023/12/04 00:12:47;;;;;;;19.87;15.23;;;;;;;;;;5588991;31;34496;-68
2023/12/04 00:15:50;;;;;;;3.37;2.45;;;;;;;;;;5588906;31;34557;-68
2023/12/04 00:18:53;;;;;;;21.48;16.75;;;;;;;;;;5589019;31;34718;-69
2023/12/04 00:21:56;;;;;;;20.90;17.35;;;;;;;;;;5589324;31;34371;-69
2023/12/04 00:24:58;;;;;;;3.30;1.25;;;;;;;;;;5589216;31;35108;-69
2023/12/04 00:28:01;;;;;;;20.48;16.48;;;;;;;;;;5589372;31;34286;-68
2023/12/04 00:31:03;;;;;;;4.25;2.78;;;;;;;;;;5588688;31;34374;-68
2023/12/04 00:34:06;;;;;;;20.95;16.60;;;;;;;;;;5589324;31;35057;-68
2023/12/04 00:37:09;;;;;;;6.12;2.60;;;;;;;;;;5589275;31;34662;-68
2023/12/04 00:40:12;;;;;;;22.83;16.85;;;;;;;;;;5588899;31;34413;-68
2023/12/04 00:43:14;;;;;;;24.25;16.90;;;;;;;;;;5589107;31;34408;-68
2023/12/04 00:46:17;;;;;;;20.40;16.25;;;;;;;;;;5589122;31;34580;-68
2023/12/04 00:49:19;;;;;;;5.60;2.50;;;;;;;;;;5588719;31;34689;-69
2023/12/04 00:52:25;;;;;;;21.05;17.02;;;;;;;;;;5589018;31;34418;-69
2023/12/04 00:55:27;;;;;;;20.83;16.73;;;;;;;;;;5588684;31;34392;-69
2023/12/04 00:58:30;;;;;;;6.97;3.30;;;;;;;;;;5588038;31;34600;-69
2023/12/04 01:01:32;;;;;;;20.40;16.62;;;;;;;;;;5588766;31;34320;-69
2023/12/04 01:04:35;;;;;;;3.42;2.33;;;;;;;;;;5588706;31;34540;-69
2023/12/04 01:07:38;;;;;;;20.73;16.65;;;;;;;;;;5588664;31;34145;-69
2023/12/04 01:10:40;;;;;;;5.37;3.03;;;;;;;;;;5587923;31;34154;-69
2023/12/04 01:13:43;;;;;;;20.17;16.25;;;;;;;;;;5588409;31;34179;-69
2023/12/04 01:16:46;;;;;;;23.40;17.35;;;;;;;;;;5588602;31;34470;-68
2023/12/04 01:19:49;;;;;;;21.20;17.37;;;;;;;;;;5588910;31;34692;-68
2023/12/04 01:22:52;;;;;;;19.25;16.35;;;;;;;;;;5588900;31;34292;-69
2023/12/04 01:25:54;;;;;;;7.60;3.50;;;;;;;;;;5588417;31;35059;-69
2023/12/04 01:28:57;;;;;;;21.37;16.52;;;;;;;;;;5588607;31;34267;-69
2023/12/04 01:31:59;;;;;;;20.48;16.75;;;;;;;;;;5588669;31;34447;-69
2023/12/04 01:35:02;;;;;;;6.32;3.30;;;;;;;;;;5588442;31;34231;-69
2023/12/04 01:38:08;;;;;;;23.30;17.80;;;;;;;;;;5588462;31;35220;-69
2023/12/04 01:41:10;;;;;;;22.45;17.67;;;;;;;;;;5587974;31;34580;-69
2023/12/04 01:44:13;;;;;;;6.22;2.85;;;;;;;;;;5588411;31;35167;-69
2023/12/04 01:47:16;;;;;;;22.67;17.90;;;;;;;;;;5588646;31;35095;-69
2023/12/04 01:50:18;;;;;;;21.55;16.40;;;;;;;;;;5587446;31;34839;-69
2023/12/04 01:53:21;;;;;;;21.27;16.37;;;;;;;;;;5588556;31;35067;-69
2023/12/04 01:56:24;;;;;;;21.62;17.02;;;;;;;;;;5588169;31;34466;-68
2023/12/04 01:59:27;;;;;;;11.55;2.45;;;;;;;;;;5588053;31;34037;-69
2023/12/04 02:02:30;;;;;;;20.52;17.37;;;;;;;;;;5588044;31;34335;-70
2023/12/04 02:05:33;;;;;;;22.10;16.83;;;;;;;;;;5587250;31;35151;-69
2023/12/04 02:08:35;;;;;;;11.60;3.92;;;;;;;;;;5588092;31;34295;-70
2023/12/04 02:11:39;;;;;;;21.90;16.40;;;;;;;;;;5587972;31;35053;-69
2023/12/04 02:14:41;;;;;;;8.38;3.37;;;;;;;;;;5587763;31;35028;-69
2023/12/04 02:17:44;;;;;;;19.40;14.80;;;;;;;;;;5587889;31;34960;-69
2023/12/04 02:20:47;;;;;;;21.40;16.00;;;;;;;;;;5587623;31;35423;-69
2023/12/04 02:23:50;;;;;;;7.53;4.18;;;;;;;;;;5587918;31;35069;-69
2023/12/04 02:26:54;;;;;;;20.23;16.23;;;;;;;;;;5587707;31;35229;-69
2023/12/04 02:30:01;;;;;;;8.40;4.87;;;;;;;;;;5587537;31;34335;-68
2023/12/04 02:33:04;;;;;;;21.02;17.12;;;;;;;;;;5587497;31;34572;-68
2023/12/04 02:36:08;;;;;;;22.67;17.95;;;;;;;;;;5587420;31;34420;-69
2023/12/04 02:39:10;;;;;;;7.55;3.28;;;;;;;;;;5587394;31;34556;-69
2023/12/04 02:42:13;;;;;;;22.37;17.00;;;;;;;;;;5587308;31;34364;-69
2023/12/04 02:45:16;;;;;;;10.68;3.60;;;;;;;;;;5587241;31;34423;-69
2023/12/04 02:48:19;;;;;;;23.00;17.52;;;;;;;;;;5587183;31;34452;-69
2023/12/04 02:51:21;;;;;;;11.38;4.28;;;;;;;;;;5587090;31;34827;-70
2023/12/04 02:54:24;;;;;;;33.38;24.40;;;;;;;;;;5589452;31;34445;-70
2023/12/04 02:57:26;;;;;;;14.23;7.32;;;;;;;;;;5589909;31;34326;-69
2023/12/04 03:00:29;;;;;;;44.10;31.67;;;;;;;;;;5589809;31;35050;-69
2023/12/04 03:03:31;;;;;;;18.05;8.85;;;;;;;;;;5589686;31;34276;-69
2023/12/04 03:06:34;;;;;;;62.83;41.72;;;;;;;;;;5589695;31;34691;-69
2023/12/04 03:09:37;;;;;;;59.42;42.10;;;;;;;;;;5589965;31;35051;-69
2023/12/04 03:12:51;;;;;;;19.80;8.63;;;;;;;;;;5589545;31;34225;-69
2023/12/04 03:15:53;;;;;;;62.08;43.38;;;;;;;;;;5589627;31;34393;-70
2023/12/04 03:18:56;;;;;;;62.42;43.42;;;;;;;;;;5589868;31;34503;-69
2023/12/04 03:22:00;;;;;;;17.12;7.37;;;;;;;;;;5589414;31;35174;-70
2023/12/04 03:25:06;;;;;;;55.22;38.00;;;;;;;;;;5589592;31;34152;-70
2023/12/04 03:28:08;;;;;;;45.85;33.10;;;;;;;;;;5589558;31;34704;-70
2023/12/04 03:31:11;;;;;;;15.90;4.85;;;;;;;;;;5589594;31;35136;-70
2023/12/04 03:34:14;;;;;;;41.60;31.48;;;;;;;;;;5589440;31;35071;-70
2023/12/04 03:37:17;;;;;;;11.70;5.57;;;;;;;;;;5589609;31;34286;-70
2023/12/04 03:40:19;;;;;;;39.85;28.40;;;;;;;;;;5589858;31;34355;-70
2023/12/04 03:43:22;;;;;;;38.65;29.45;;;;;;;;;;5589392;31;34526;-70
2023/12/04 03:46:25;;;;;;;7.37;4.00;;;;;;;;;;5589373;31;34982;-70
2023/12/04 03:49:28;;;;;;;37.03;27.50;;;;;;;;;;5589350;31;34540;-70
2023/12/04 03:52:31;;;;;;;14.40;5.55;;;;;;;;;;5589360;31;35287;-70
2023/12/04 03:55:34;;;;;;;36.33;27.70;;;;;;;;;;5589699;31;34582;-70
2023/12/04 03:58:38;;;;;;;33.17;24.90;;;;;;;;;;5589258;31;34373;-69
2023/12/04 04:01:41;;;;;;;12.20;5.03;;;;;;;;;;5588547;31;34419;-70
2023/12/04 04:04:44;;;;;;;32.55;24.05;;;;;;;;;;5588894;31;34226;-71
2023/12/04 04:07:46;;;;;;;9.75;5.05;;;;;;;;;;5589124;31;35088;-70
2023/12/04 04:10:49;;;;;;;33.67;24.77;;;;;;;;;;5589209;31;34287;-70
2023/12/04 04:13:52;;;;;;;14.60;5.57;;;;;;;;;;5588779;31;34160;-70
2023/12/04 04:16:54;;;;;;;34.20;23.62;;;;;;;;;;5589247;31;34840;-70
2023/12/04 04:19:57;;;;;;;8.75;5.50;;;;;;;;;;5589079;31;34474;-70
2023/12/04 04:22:59;;;;;;;39.38;25.55;;;;;;;;;;5589130;31;34572;-69
2023/12/04 04:26:02;;;;;;;34.80;25.40;;;;;;;;;;5588984;31;34494;-70
2023/12/04 04:29:05;;;;;;;16.55;6.45;;;;;;;;;;5589083;31;34284;-70
2023/12/04 04:32:07;;;;;;;13.55;7.18;;;;;;;;;;5589017;31;34506;-70
2023/12/04 04:35:13;;;;;;;38.22;27.60;;;;;;;;;;5588843;31;34469;-69
2023/12/04 04:38:16;;;;;;;13.07;5.68;;;;;;;;;;5588901;31;35025;-69
2023/12/04 04:41:18;;;;;;;35.17;24.95;;;;;;;;;;5588782;31;35149;-69
2023/12/04 04:44:21;;;;;;;36.25;26.75;;;;;;;;;;5589159;31;34357;-69
2023/12/04 04:47:26;;;;;;;9.30;4.60;;;;;;;;;;5588004;31;34215;-70
2023/12/04 04:50:29;;;;;;;35.63;26.40;;;;;;;;;;5588849;31;34453;-71
2023/12/04 04:53:32;;;;;;;12.35;4.97;;;;;;;;;;5587855;31;34399;-70
2023/12/04 04:56:34;;;;;;;35.42;25.35;;;;;;;;;;5588666;31;34352;-70
2023/12/04 04:59:37;;;;;;;7.78;4.53;;;;;;;;;;5588948;31;34620;-69
2023/12/04 05:02:39;;;;;;;36.03;26.10;;;;;;;;;;5588653;31;34279;-69
2023/12/04 05:05:42;;;;;;;14.75;6.25;;;;;;;;;;5587985;31;34204;-70
2023/12/04 05:08:45;;;;;;;36.80;26.33;;;;;;;;;;5588695;31;33494;-69
2023/12/04 05:11:48;;;;;;;9.68;4.15;;;;;;;;;;5588701;31;34300;-71
2023/12/04 05:14:50;;;;;;;36.13;24.58;;;;;;;;;;5587768;31;35096;-71
2023/12/04 05:17:53;;;;;;;10.30;4.78;;;;;;;;;;5587185;31;35037;-70
2023/12/04 05:20:56;;;;;;;37.70;25.15;;;;;;;;;;5588524;31;34207;-70
2023/12/04 05:23:58;;;;;;;7.68;4.22;;;;;;;;;;5588286;31;34457;-70
2023/12/04 05:27:02;;;;;;;37.45;25.85;;;;;;;;;;5588452;31;34360;-71
2023/12/04 05:30:05;;;;;;;30.92;24.05;;;;;;;;;;5588437;31;34935;-70
2023/12/04 05:33:07;;;;;;;6.87;3.37;;;;;;;;;;5587926;31;34344;-71
2023/12/04 05:36:11;;;;;;;37.83;25.40;;;;;;;;;;5588618;31;34380;-71
2023/12/04 05:39:13;;;;;;;9.55;5.53;;;;;;;;;;5587845;31;34238;-70
2023/12/04 05:42:16;;;;;;;31.08;23.30;;;;;;;;;;5587892;31;34462;-70
2023/12/04 05:45:18;;;;;;;29.77;23.40;;;;;;;;;;5588328;31;35143;-71
2023/12/04 05:48:21;;;;;;;9.40;4.62;;;;;;;;;;5588271;31;34329;-70
2023/12/04 05:51:24;;;;;;;9.18;5.43;;;;;;;;;;5588528;31;35008;-71
2023/12/04 05:54:26;;;;;;;30.80;21.83;;;;;;;;;;5588170;31;35329;-71
2023/12/04 05:57:28;;;;;;;5.53;3.72;;;;;;;;;;5588010;31;35135;-70
2023/12/04 06:00:31;;;;;;;30.10;21.98;;;;;;;;;;5588022;31;34675;-70
2023/12/04 06:03:34;;;;;;;12.05;3.90;;;;;;;;;;5587228;31;35025;-70
2023/12/04 06:06:37;;;;;;;29.87;22.30;;;;;;;;;;5588096;31;34302;-70
2023/12/04 06:09:40;;;;;;;11.43;5.00;;;;;;;;;;5587932;31;34376;-71
2023/12/04 06:12:42;;;;;;;31.75;23.12;;;;;;;;;;5587845;31;34461;-70
2023/12/04 06:15:45;;;;;;;9.70;4.10;;;;;;;;;;5587880;31;34295;-71
2023/12/04 06:18:47;;;;;;;29.37;22.65;;;;;;;;;;5587161;31;35001;-70
2023/12/04 06:21:50;;;;;;;9.77;4.87;;;;;;;;;;5587843;31;34415;-71
2023/12/04 06:24:53;;;;;;;10.30;5.97;;;;;;;;;;5587370;31;34586;-71
2023/12/04 06:27:56;;;;;;;34.53;24.23;;;;;;;;;;5589401;31;34376;-71
2023/12/04 06:30:59;;;;;;;14.05;6.10;;;;;;;;;;5593473;31;34377;-70
2023/12/04 06:34:01;;;;;;;40.50;29.77;;;;;;;;;;5594102;31;34473;-70
2023/12/04 06:37:09;;;;;;;11.98;6.60;;;;;;;;;;5593528;31;35018;-71
2023/12/04 06:40:12;;;;;;;44.17;31.92;;;;;;;;;;5593185;31;34250;-70
2023/12/04 06:43:18;;;;;;;9.02;5.68;;;;;;;;;;5592700;31;34262;-70
2023/12/04 06:46:23;;;;;;;48.78;30.80;;;;;;;;;;5593273;31;34394;-71
2023/12/04 06:49:28;;;;;;;18.15;7.12;;;;;;;;;;5593349;31;35156;-71
2023/12/04 06:52:31;;;;;;;39.13;29.52;;;;;;;;;;5592724;31;34520;-71
2023/12/04 06:55:34;;;;;;;16.15;7.12;;;;;;;;;;5593247;31;34617;-73
2023/12/04 06:58:37;;;;;;;55.00;32.03;;;;;;;;;;5593384;31;35103;-71
2023/12/04 07:01:39;;;;;;;17.48;7.70;;;;;;;;;;5592674;31;34602;-71
2023/12/04 07:04:42;;;;;;;69.60;31.45;;;;;;;;;;5592626;31;34318;-71
2023/12/04 07:07:45;;;;;;;66.62;32.72;;;;;;;;;;5593492;31;34977;-70
2023/12/04 07:10:47;;;;;;;26.12;5.50;;;;;;;;;;5593197;31;34429;-71
2023/12/04 07:13:50;;;;;;;51.85;30.67;;;;;;;;;;5592394;31;34198;-71
2023/12/04 07:16:52;;;;;;;20.48;6.47;;;;;;;;;;5592696;31;35253;-71
2023/12/04 07:19:55;;;;;;;57.72;30.30;;;;;;;;;;5592467;31;34460;-71
2023/12/04 07:22:58;;;;;;;54.70;30.58;;;;;;;;;;5592741;31;34192;-71
2023/12/04 07:26:00;;;;;;;52.88;28.62;;;;;;;;;;5592674;31;35268;-71
2023/12/04 07:29:03;;;;;;;44.13;27.10;;;;;;;;;;5592841;31;33557;-71
2023/12/04 07:32:06;;;;;;;55.00;28.25;;;;;;;;;;5592880;31;33542;-72
2023/12/04 07:35:09;;;;;;;41.67;27.45;;;;;;;;;;5592337;31;34477;-71
2023/12/04 07:38:12;;;;;;;28.05;7.47;;;;;;;;;;5592411;31;35005;-71
2023/12/04 07:41:15;;;;;;;49.17;28.42;;;;;;;;;;5588673;31;34523;-72
2023/12/04 07:44:17;;;;;;;54.60;28.65;;;;;;;;;;5589282;31;33529;-71
2023/12/04 07:47:20;;;;;;;15.43;5.18;;;;;;;;;;5589122;31;34400;-72
2023/12/04 07:50:23;;;;;;;54.00;28.87;;;;;;;;;;5589010;31;34269;-72
2023/12/04 07:53:26;;;;;;;54.42;31.00;;;;;;;;;;5588907;31;35249;-71
2023/12/04 07:56:28;;;;;;;51.37;31.37;;;;;;;;;;5588984;31;34601;-71
2023/12/04 07:59:31;;;;;;;53.70;30.55;;;;;;;;;;5588754;31;34309;-71
2023/12/04 08:02:33;;;;;;;20.58;7.93;;;;;;;;;;5588098;31;34572;-71
2023/12/04 08:05:36;;;;;;;52.70;29.80;;;;;;;;;;5588345;31;35207;-70
2023/12/04 08:08:39;;;;;;;48.25;28.52;;;;;;;;;;5588263;31;34190;-71
2023/12/04 08:11:41;;;;;;;49.47;28.75;;;;;;;;;;5588564;31;35165;-71
2023/12/04 08:14:46;;;;;;;44.90;29.02;;;;;;;;;;5588275;31;34530;-71
2023/12/04 08:17:49;;;;;;;51.03;29.65;;;;;;;;;;5588701;31;34463;-71
2023/12/04 08:20:52;;;;;;;42.45;29.17;;;;;;;;;;5588661;31;34402;-70
2023/12/04 08:23:55;;;;;;;48.78;30.00;;;;;;;;;;5588633;31;35118;-71
2023/12/04 08:26:58;;;;;;;44.30;29.30;;;;;;;;;;5588757;31;34533;-71
2023/12/04 08:30:02;;;;;;;45.85;29.65;;;;;;;;;;5588314;31;34325;-72
2023/12/04 08:33:04;;;;;;;40.40;28.77;;;;;;;;;;5588561;31;35061;-72
2023/12/04 08:36:08;;;;;;;41.45;29.00;;;;;;;;;;5588630;31;34319;-72
2023/12/04 08:39:11;;;;;;;33.28;22.52;;;;;;;;;;5587792;31;34597;-73
2023/12/04 08:42:14;;;;;;;34.20;23.85;;;;;;;;;;5587679;31;35029;-72
2023/12/04 08:45:25;;;;;;;21.95;16.37;;;;;;;;;;5588366;31;34460;-72
2023/12/04 08:48:27;;;;;;;20.83;15.00;;;;;;;;;;5587762;31;34217;-72
2023/12/04 08:51:30;;;;;;;19.25;15.25;;;;;;;;;;5588161;31;35100;-72
2023/12/04 08:54:34;;;;;;;20.62;14.80;;;;;;;;;;5588496;31;34479;-71
2023/12/04 08:57:36;;;;;;;24.25;15.65;;;;;;;;;;5588099;31;34663;-72
2023/12/04 09:00:42;;;;;;;23.98;15.63;;;;;;;;;;5588734;31;34466;-71
2023/12/04 09:03:45;;;;;;;25.67;17.37;;;;;;;;;;5588738;31;34430;-72
2023/12/04 09:06:48;;;;;;;22.90;15.80;;;;;;;;;;5588340;31;34426;-71
2023/12/04 09:09:54;;;;;;;24.27;16.62;;;;;;;;;;5587139;31;35078;-71
2023/12/04 09:12:57;;;;;;;23.20;16.73;;;;;;;;;;5587445;31;34449;-71
2023/12/04 09:15:59;;;;;;;29.12;19.08;;;;;;;;;;5587596;31;33807;-71
2023/12/04 09:19:02;;;;;;;31.05;18.23;;;;;;;;;;5586817;31;35057;-71
2023/12/04 09:22:05;;;;;;;26.75;18.90;;;;;;;;;;5587096;31;34268;-71
2023/12/04 09:25:20;;;;;;;26.15;18.37;;;;;;;;;;5588259;31;34349;-71
2023/12/04 09:28:23;;;;;;;23.83;17.33;;;;;;;;;;5587448;31;35221;-72
2023/12/04 09:31:25;;;;;;;25.12;18.15;;;;;;;;;;5588129;31;35236;-72
2023/12/04 09:34:28;;;;;;;30.60;20.50;;;;;;;;;;5587830;31;34382;-72
2023/12/04 09:37:30;;;;;;;35.10;21.77;;;;;;;;;;5587603;31;34230;-72
2023/12/04 09:40:33;;;;;;;37.13;22.70;;;;;;;;;;5587997;31;35031;-71
2023/12/04 09:43:36;;;;;;;31.55;21.77;;;;;;;;;;5587896;31;35128;-71
2023/12/04 09:46:39;;;;;;;29.95;21.02;;;;;;;;;;5587901;31;34979;-71
2023/12/04 09:49:42;;;;;;;31.73;20.23;;;;;;;;;;5587732;31;34131;-72
2023/12/04 09:52:45;;;;;;;28.23;19.60;;;;;;;;;;5587628;31;35050;-72
2023/12/04 09:55:48;;;;;;;26.20;18.70;;;;;;;;;;5588108;31;35258;-72
2023/12/04 09:58:52;;;;;;;24.30;17.37;;;;;;;;;;5587698;31;34549;-72
2023/12/04 10:01:55;;;;;;;25.90;18.50;;;;;;;;;;5587103;31;34405;-71
2023/12/04 10:04:58;;;;;;;30.10;18.62;;;;;;;;;;5587280;31;35053;-72
2023/12/04 10:08:01;;;;;;;27.20;17.45;;;;;;;;;;5587628;31;34225;-72
2023/12/04 10:11:03;;;;;;;19.17;14.75;;;;;;;;;;5587839;31;35032;-72
2023/12/04 10:14:12;;;;;;;23.60;16.83;;;;;;;;;;5587144;31;34298;-72
2023/12/04 10:17:17;;;;;;;25.55;18.60;;;;;;;;;;5587567;31;34452;-72
2023/12/04 10:20:21;;;;;;;28.48;18.65;;;;;;;;;;5587907;31;34469;-71
2023/12/04 10:23:36;;;;;;;29.70;18.73;;;;;;;;;;5586781;31;34560;-71
2023/12/04 10:26:49;;;;;;;28.95;16.98;;;;;;;;;;5586898;31;35084;-72
2023/12/04 10:29:52;;;;;;;28.65;16.00;;;;;;;;;;5587361;31;35229;-72
2023/12/04 10:33:01;;;;;;;25.15;16.90;;;;;;;;;;5587127;31;34293;-72
2023/12/04 10:36:10;;;;;;;26.48;17.70;;;;;;;;;;5587028;31;35088;-71
2023/12/04 10:39:13;;;;;;;22.27;16.42;;;;;;;;;;5587001;31;34450;-72
2023/12/04 10:42:26;;;;;;;24.40;17.33;;;;;;;;;;5586273;31;34370;-72
2023/12/04 10:45:29;;;;;;;23.58;15.93;;;;;;;;;;5587801;31;34295;-71
2023/12/04 10:48:32;;;;;;;22.70;15.95;;;;;;;;;;5590218;31;34472;-73
2023/12/04 10:51:36;;;;;;;22.17;15.65;;;;;;;;;;5588768;31;34078;-73
2023/12/04 10:54:39;;;;;;;24.15;14.70;;;;;;;;;;5590815;31;34356;-73
2023/12/04 10:57:43;;;;;;;20.48;14.48;;;;;;;;;;5586663;31;34424;-72
2023/12/04 11:00:48;;;;;;;18.90;13.82;;;;;;;;;;5588317;31;35322;-71
2023/12/04 11:03:55;;;;;;;19.85;13.80;;;;;;;;;;5586887;31;34395;-72
2023/12/04 11:07:01;;;;;;;19.52;13.82;;;;;;;;;;5586813;31;34169;-73
2023/12/04 11:10:05;;;;;;;19.10;13.48;;;;;;;;;;5573021;31;35057;-74
2023/12/04 11:13:12;;;;;;;14.85;11.60;;;;;;;;;;5586521;31;34711;-75
2023/12/04 11:16:20;;;;;;;16.02;11.82;;;;;;;;;;5587845;31;34239;-72
2023/12/04 11:19:28;;;;;;;18.25;12.15;;;;;;;;;;5589869;31;34300;-73
2023/12/04 11:22:31;;;;;;;19.15;11.60;;;;;;;;;;5589543;31;33950;-73
2023/12/04 11:25:37;;;;;;;17.37;11.68;;;;;;;;;;5588962;31;34651;-73
2023/12/04 11:28:39;;;;;;;15.40;10.90;;;;;;;;;;5589265;31;34590;-73
2023/12/04 11:31:42;;;;;;;15.40;10.98;;;;;;;;;;5588969;31;34616;-73
2023/12/04 11:34:54;;;;;;;14.32;11.38;;;;;;;;;;5589063;31;34303;-73
2023/12/04 11:37:57;;;;;;;15.13;10.55;;;;;;;;;;5589261;31;32823;-73
2023/12/04 11:40:59;;;;;;;18.48;10.80;;;;;;;;;;5588889;31;34376;-74
2023/12/04 11:44:02;;;;;;;14.77;10.35;;;;;;;;;;5588927;31;34425;-74
2023/12/04 11:47:06;;;;;;;15.05;10.70;;;;;;;;;;5587904;31;34355;-74
2023/12/04 11:50:08;;;;;;;14.60;10.23;;;;;;;;;;5588252;31;35130;-74
2023/12/04 11:53:13;;;;;;;15.00;10.82;;;;;;;;;;5588907;31;34400;-74
2023/12/04 11:56:16;;;;;;;18.50;10.98;;;;;;;;;;5588454;31;34517;-74
2023/12/04 11:59:20;;;;;;;14.10;11.12;;;;;;;;;;5588595;31;34924;-74
2023/12/04 12:02:24;;;;;;;13.70;10.90;;;;;;;;;;5588417;31;34562;-74
2023/12/04 12:05:27;;;;;;;16.17;10.55;;;;;;;;;;5588745;31;35082;-74
2023/12/04 12:08:31;;;;;;;14.80;11.60;;;;;;;;;;5588875;31;35114;-74
2023/12/04 12:11:34;;;;;;;16.60;11.57;;;;;;;;;;5588880;31;35105;-74
2023/12/04 12:14:36;;;;;;;20.25;11.63;;;;;;;;;;5585572;31;99404;-76
2023/12/04 12:17:40;;;;;;;15.15;11.43;;;;;;;;;;5588896;31;34407;-76
2023/12/04 12:20:42;;;;;;;15.85;11.50;;;;;;;;;;5588834;31;34607;-76
2023/12/04 12:23:45;;;;;;;14.25;10.13;;;;;;;;;;5588747;31;34379;-76
2023/12/04 12:26:48;;;;;;;11.98;9.65;;;;;;;;;;5587389;31;35213;-76
2023/12/04 12:29:51;;;;;;;13.30;10.43;;;;;;;;;;5588856;31;34427;-76
2023/12/04 12:32:53;;;;;;;13.57;10.38;;;;;;;;;;5588178;31;34905;-76
2023/12/04 12:35:57;;;;;;;13.15;10.20;;;;;;;;;;5589056;31;34208;-76
2023/12/04 12:39:08;;;;;;;13.85;10.98;;;;;;;;;;5588631;31;34391;-76
2023/12/04 12:42:11;;;;;;;12.88;10.50;;;;;;;;;;5588680;31;34927;-77
2023/12/04 12:45:13;;;;;;;13.85;10.10;;;;;;;;;;5588371;31;34247;-75
2023/12/04 12:48:17;;;;;;;12.82;10.55;;;;;;;;;;5588673;31;35240;-76
2023/12/04 12:51:19;;;;;;;14.68;10.63;;;;;;;;;;5588913;31;35084;-76
2023/12/04 12:54:26;;;;;;;18.62;9.75;;;;;;;;;;5588405;31;34394;-75
2023/12/04 12:57:28;;;;;;;13.62;10.00;;;;;;;;;;5588500;31;34415;-75
2023/12/04 13:00:33;;;;;;;13.60;10.35;;;;;;;;;;5588462;31;35102;-75
2023/12/04 13:03:37;;;;;;;12.60;9.77;;;;;;;;;;5588486;31;34644;-75
2023/12/04 13:06:41;;;;;;;13.95;10.77;;;;;;;;;;5588329;31;34372;-75
2023/12/04 13:09:43;;;;;;;12.98;10.55;;;;;;;;;;5588301;31;35563;-75
2023/12/04 13:12:47;;;;;;;12.85;9.93;;;;;;;;;;5587593;31;34925;-74
2023/12/04 13:15:50;;;;;;;12.93;9.98;;;;;;;;;;5588188;31;35057;-75
2023/12/04 13:18:53;;;;;;;13.90;10.32;;;;;;;;;;5588279;31;33993;-75
2023/12/04 13:21:58;;;;;;;13.25;10.88;;;;;;;;;;5587497;31;34909;-74
2023/12/04 13:25:02;;;;;;;15.10;11.00;;;;;;;;;;5587629;31;34231;-75
2023/12/04 13:28:04;;;;;;;14.65;10.50;;;;;;;;;;5588183;31;34444;-76
2023/12/04 13:31:07;;;;;;;13.20;10.20;;;;;;;;;;5588110;31;34381;-76
2023/12/04 13:34:11;;;;;;;13.38;10.75;;;;;;;;;;5587719;31;35210;-75
2023/12/04 13:37:15;;;;;;;13.35;10.45;;;;;;;;;;5586822;31;34431;-75
2023/12/04 13:40:18;;;;;;;14.70;10.75;;;;;;;;;;5587727;31;34976;-75
2023/12/04 13:46:42;;;;;;;14.23;10.75;;;;;;;;;;5587626;31;35114;-75
2023/12/04 13:49:46;;;;;;;12.52;10.10;;;;;;;;;;5588200;31;34425;-75
2023/12/04 13:52:56;;;;;;;14.65;10.85;;;;;;;;;;5587945;31;35086;-75
2023/12/04 13:59:06;;;;;;;12.85;10.30;;;;;;;;;;5587466;31;34298;-76
2023/12/04 14:02:11;;;;;;;13.77;11.12;;;;;;;;;;5587788;31;34356;-76
2023/12/04 14:05:15;;;;;;;14.45;10.75;;;;;;;;;;5587760;31;34383;-76
2023/12/04 14:08:19;;;;;;;13.52;10.60;;;;;;;;;;5587861;31;34330;-76
2023/12/04 14:11:21;;;;;;;13.62;11.07;;;;;;;;;;5587459;31;35200;-74
2023/12/04 14:14:24;;;;;;;15.30;10.82;;;;;;;;;;5587447;31;34155;-74
2023/12/04 14:17:26;;;;;;;14.70;11.38;;;;;;;;;;5587271;31;34546;-75
2023/12/04 14:20:29;;;;;;;13.35;11.15;;;;;;;;;;5587538;31;34595;-76
2023/12/04 14:23:32;;;;;;;19.70;12.05;;;;;;;;;;5587417;31;34691;-75
2023/12/04 14:26:34;;;;;;;15.70;11.40;;;;;;;;;;5587355;31;35264;-75
2023/12/04 14:29:37;;;;;;;17.35;12.02;;;;;;;;;;5586738;31;34352;-76
2023/12/04 14:32:40;;;;;;;14.60;11.77;;;;;;;;;;5587343;31;34364;-75
2023/12/04 14:35:49;;;;;;;20.77;12.57;;;;;;;;;;5587143;31;34481;-74
2023/12/04 14:38:52;;;;;;;19.48;12.15;;;;;;;;;;5586979;31;34171;-74
2023/12/04 14:41:55;;;;;;;18.65;12.23;;;;;;;;;;5587481;31;34139;-75
2023/12/04 14:44:58;;;;;;;17.60;12.75;;;;;;;;;;5587265;31;33913;-76
2023/12/04 14:48:00;;;;;;;15.13;11.88;;;;;;;;;;5587161;31;34393;-75
2023/12/04 14:51:04;;;;;;;16.87;12.57;;;;;;;;;;5589767;31;34356;-76
2023/12/04 14:54:14;;;;;;;20.90;12.45;;;;;;;;;;5589469;31;35042;-75
2023/12/04 15:17:18;;;;;;;23.05;13.43;;;;;;;;;;5589542;31;34376;-75
2023/12/04 15:23:30;;;;;;;19.52;13.73;;;;;;;;;;5589059;31;34399;-74
2023/12/04 15:26:32;;;;;;;20.98;13.25;;;;;;;;;;5588882;31;35115;-75
2023/12/04 15:29:35;;;;;;;17.60;12.77;;;;;;;;;;5589390;31;34145;-76
2023/12/04 15:32:40;;;;;;;18.52;14.27;;;;;;;;;;5589152;31;35060;-73
2023/12/04 15:35:43;;;;;;;18.50;14.15;;;;;;;;;;5589043;31;34986;-75
2023/12/04 15:38:45;;;;;;;20.05;14.13;;;;;;;;;;5588758;31;34369;-75
2023/12/04 15:41:48;;;;;;;23.05;14.63;;;;;;;;;;5588843;31;32930;-75
2023/12/04 15:44:51;;;;;;;21.87;14.20;;;;;;;;;;5589051;31;34589;-75
2023/12/04 15:47:54;;;;;;;17.62;13.57;;;;;;;;;;5588932;31;34457;-74
2023/12/04 15:50:57;;;;;;;20.52;14.70;;;;;;;;;;5588673;31;34531;-74
2023/12/04 15:54:00;;;;;;;20.10;14.70;;;;;;;;;;5588712;31;33890;-75
2023/12/04 15:57:04;;;;;;;22.25;15.23;;;;;;;;;;5588612;31;34336;-74
2023/12/04 16:00:09;;;;;;;23.20;15.73;;;;;;;;;;5587164;31;34332;-75
2023/12/04 16:03:13;;;;;;;25.35;16.35;;;;;;;;;;5588611;31;34379;-75
2023/12/04 16:06:16;;;;;;;26.23;16.83;;;;;;;;;;5588659;31;35064;-75
2023/12/04 16:09:19;;;;;;;21.80;16.35;;;;;;;;;;5588386;31;35268;-75
2023/12/04 16:12:24;;;;;;;21.25;16.00;;;;;;;;;;5587691;31;35031;-74
2023/12/04 16:15:28;;;;;;;24.45;16.65;;;;;;;;;;5588622;31;34381;-75
2023/12/04 16:18:30;;;;;;;25.23;17.17;;;;;;;;;;5588654;31;34201;-75
2023/12/04 16:21:33;;;;;;;27.20;18.02;;;;;;;;;;5587760;31;34435;-74
2023/12/04 16:24:35;;;;;;;24.87;17.90;;;;;;;;;;5588940;31;34340;-75
2023/12/04 16:27:38;;;;;;;24.73;18.00;;;;;;;;;;5588653;31;34436;-75
2023/12/04 16:30:41;;;;;;;25.15;17.67;;;;;;;;;;5588040;31;34402;-75
2023/12/04 16:33:44;;;;;;;26.20;17.30;;;;;;;;;;5588783;31;34889;-75
2023/12/04 16:36:46;;;;;;;26.12;18.55;;;;;;;;;;5588413;31;35249;-75
2023/12/04 16:39:49;;;;;;;22.45;17.25;;;;;;;;;;5587686;31;34513;-76
2023/12/04 16:42:52;;;;;;;25.62;17.45;;;;;;;;;;5588167;31;34421;-75
2023/12/04 16:46:04;;;;;;;22.90;16.75;;;;;;;;;;5588011;31;34417;-75
2023/12/04 16:49:07;;;;;;;25.50;16.42;;;;;;;;;;5588237;31;34304;-76
2023/12/04 16:52:14;;;;;;;22.27;16.67;;;;;;;;;;5588622;31;34169;-75
2023/12/04 16:55:17;;;;;;;21.98;16.85;;;;;;;;;;5588143;31;34566;-74
2023/12/04 16:58:19;;;;;;;25.10;17.12;;;;;;;;;;5588288;31;34306;-76
2023/12/04 17:01:22;;;;;;;21.65;16.75;;;;;;;;;;5587890;31;34467;-75
2023/12/04 17:04:26;;;;;;;21.55;16.73;;;;;;;;;;5587833;31;34237;-75
2023/12/04 17:07:29;;;;;;;27.87;20.20;;;;;;;;;;5588217;31;34271;-75
2023/12/04 17:10:31;;;;;;;23.67;16.65;;;;;;;;;;5588164;31;34550;-75
2023/12/04 17:13:34;;;;;;;20.70;16.40;;;;;;;;;;5587716;31;35078;-75
2023/12/04 17:16:36;;;;;;;25.77;17.98;;;;;;;;;;5587952;31;35052;-74
2023/12/04 17:19:39;;;;;;;23.30;17.55;;;;;;;;;;5587410;31;34513;-73
2023/12/04 17:22:42;;;;;;;24.40;17.60;;;;;;;;;;5588197;31;34274;-75
2023/12/04 17:25:46;;;;;;;22.25;17.08;;;;;;;;;;5588492;31;34590;-76
2023/12/04 17:28:49;;;;;;;23.27;17.17;;;;;;;;;;5588028;31;34322;-75
2023/12/04 17:31:52;;;;;;;21.92;17.20;;;;;;;;;;5587492;31;34392;-75
2023/12/04 17:34:55;;;;;;;24.52;17.52;;;;;;;;;;5588285;31;34597;-76
2023/12/04 17:37:58;;;;;;;23.70;17.87;;;;;;;;;;5588087;31;35078;-76
2023/12/04 17:41:01;;;;;;;21.27;16.58;;;;;;;;;;5587424;31;34500;-76
2023/12/04 17:44:03;;;;;;;22.25;16.75;;;;;;;;;;5588227;31;34390;-76
2023/12/04 17:47:08;;;;;;;22.60;17.62;;;;;;;;;;5587771;31;35029;-74
2023/12/04 17:50:12;;;;;;;23.90;17.60;;;;;;;;;;5587884;31;34999;-76
2023/12/04 17:53:15;;;;;;;24.70;18.67;;;;;;;;;;5587922;31;34448;-74
2023/12/04 17:56:18;;;;;;;26.40;20.12;;;;;;;;;;5587272;31;34410;-75
2023/12/04 17:59:21;;;;;;;25.92;20.02;;;;;;;;;;5587957;31;34924;-75
2023/12/04 18:02:23;;;;;;;26.27;20.00;;;;;;;;;;5587189;31;34511;-75
2023/12/04 18:05:26;;;;;;;28.45;21.23;;;;;;;;;;5587703;31;34436;-74
2023/12/04 18:08:29;;;;;;;27.25;20.70;;;;;;;;;;5587675;31;35060;-75
2023/12/04 18:11:32;;;;;;;29.90;20.98;;;;;;;;;;5586494;31;35248;-74
2023/12/04 18:14:34;;;;;;;28.27;21.52;;;;;;;;;;5587563;31;34576;-75
2023/12/04 18:17:41;;;;;;;28.85;19.75;;;;;;;;;;5587619;31;34448;-74
2023/12/04 18:20:47;;;;;;;30.37;21.58;;;;;;;;;;5587224;31;34200;-75